Time;durP1;ratioP1;P1;durP2;ratioP2;P2;SDS_P1;SDS_P2;PMS_P1;PMS_P2;Temp;Humidity;BMP_temperature;BMP_pressure;BME280_temperature;BME280_humidity;BME280_pressure;Samples;Min_cycle;Max_cycle;Signal;HPM_P1;HPM_P2
2021/12/17 00:00:17;;;;;;;36.88;20.73;;;;;;;6.13;77.54;101702.97;346878;28;1498;-70
2021/12/17 00:00:31;;;;;;;39.58;21.33;;;;;;;6.23;77.70;101704.00;347514;28;1047;-70
2021/12/17 00:00:46;;;;;;;42.47;21.85;;;;;;;6.22;77.05;101710.03;349061;28;1114;-69
2021/12/17 00:01:00;;;;;;;40.22;21.35;;;;;;;6.25;77.94;101704.03;349744;28;1764;-70
2021/12/17 00:01:13;;;;;;;37.25;21.23;;;;;;;6.27;77.28;101695.47;350416;28;966;-70
2021/12/17 00:01:55;;;;;;;37.65;21.08;;;;;;;6.31;77.78;101701.56;350179;28;1167;-69
2021/12/17 00:03:11;;;;;;;36.45;20.10;;;;;;;6.47;76.48;101697.53;347787;28;1087;-68
2021/12/17 00:04:04;;;;;;;37.05;21.55;;;;;;;6.47;77.01;101702.72;349090;28;1228;-69
2021/12/17 00:04:24;;;;;;;37.47;21.10;;;;;;;6.47;76.44;101698.41;348399;28;1945;-69
2021/12/17 00:04:51;;;;;;;35.92;21.10;;;;;;;6.40;76.52;101702.59;352271;28;991;-68
2021/12/17 00:05:08;;;;;;;37.78;20.83;;;;;;;6.47;76.94;101705.28;351379;28;1603;-70
2021/12/17 00:05:21;;;;;;;42.05;22.10;;;;;;;6.43;76.60;101696.63;350687;28;949;-69
2021/12/17 00:06:47;;;;;;;41.97;23.02;;;;;;;6.37;77.19;101702.53;348696;28;1269;-68
2021/12/17 00:06:59;;;;;;;42.22;23.08;;;;;;;6.37;76.68;101699.94;349101;28;986;-68
2021/12/17 00:07:14;;;;;;;39.30;22.40;;;;;;;6.40;76.89;101699.16;348987;28;1068;-69
2021/12/17 00:07:28;;;;;;;37.88;22.23;;;;;;;6.43;77.10;101696.63;348029;28;1031;-69
2021/12/17 00:07:40;;;;;;;38.13;21.88;;;;;;;6.46;76.95;101698.38;350148;28;1235;-70
2021/12/17 00:07:52;;;;;;;37.50;22.02;;;;;;;6.46;76.76;101688.94;350153;28;1030;-69
2021/12/17 00:08:04;;;;;;;38.67;22.70;;;;;;;6.47;76.71;101694.97;352735;28;1402;-70
2021/12/17 00:08:21;;;;;;;42.83;24.00;;;;;;;6.50;76.32;101697.56;353200;28;1142;-69
2021/12/17 00:08:34;;;;;;;42.50;23.15;;;;;;;6.50;76.80;101693.31;352088;28;837;-70
2021/12/17 00:08:50;;;;;;;40.90;22.83;;;;;;;6.54;76.54;101696.78;350737;28;1113;-69
2021/12/17 00:09:03;;;;;;;41.40;22.95;;;;;;;6.52;76.16;101696.78;348358;28;1842;-68
2021/12/17 00:09:15;;;;;;;40.38;22.83;;;;;;;6.51;76.42;101695.03;347857;28;888;-68
2021/12/17 00:09:27;;;;;;;38.58;22.33;;;;;;;6.49;76.46;101688.09;346259;28;1342;-69
2021/12/17 00:09:40;;;;;;;38.78;22.60;;;;;;;6.50;77.21;101692.41;347976;28;738;-70
2021/12/17 00:09:54;;;;;;;38.70;22.73;;;;;;;6.49;76.80;101694.13;346096;28;899;-70
2021/12/17 00:10:11;;;;;;;39.80;23.35;;;;;;;6.54;76.63;101694.19;346222;28;1071;-69
2021/12/17 00:10:23;;;;;;;38.85;22.35;;;;;;;6.55;76.52;101690.78;345176;28;1159;-69
2021/12/17 00:10:36;;;;;;;39.15;21.90;;;;;;;6.54;76.64;101689.03;344945;28;1185;-69
2021/12/17 00:10:50;;;;;;;39.95;22.25;;;;;;;6.48;76.76;101695.00;345463;28;1216;-69
2021/12/17 00:11:04;;;;;;;39.05;22.15;;;;;;;6.46;76.67;101693.19;346971;28;1782;-70
2021/12/17 00:11:16;;;;;;;40.35;22.27;;;;;;;6.49;76.94;101695.84;349676;28;1137;-69
2021/12/17 00:11:28;;;;;;;39.95;22.08;;;;;;;6.53;76.50;101695.06;350338;28;1223;-70
2021/12/17 00:11:40;;;;;;;38.53;21.85;;;;;;;6.53;76.50;101689.91;350432;28;1170;-69
2021/12/17 00:11:53;;;;;;;39.00;22.58;;;;;;;6.47;77.12;101697.53;349075;28;1018;-71
2021/12/17 00:12:09;;;;;;;38.97;22.45;;;;;;;6.42;77.28;101691.41;347677;28;1863;-69
2021/12/17 00:12:24;;;;;;;35.75;21.30;;;;;;;6.46;76.95;101685.44;346808;28;2236;-69
2021/12/17 00:12:36;;;;;;;32.95;20.70;;;;;;;6.52;77.14;101685.56;348001;28;2750;-70
2021/12/17 00:12:48;;;;;;;32.40;20.80;;;;;;;6.55;77.01;101690.78;347850;28;1486;-70
2021/12/17 00:13:01;;;;;;;37.84;22.20;;;;;;;6.51;77.19;101689.88;347943;28;1772;-71
2021/12/17 00:13:13;;;;;;;40.42;22.80;;;;;;;6.51;76.90;101691.59;347761;28;1050;-69
2021/12/17 00:13:26;;;;;;;39.53;22.00;;;;;;;6.51;77.43;101689.88;348885;28;1010;-68
2021/12/17 00:13:39;;;;;;;39.20;22.52;;;;;;;6.53;76.79;101695.06;348928;28;1040;-68
2021/12/17 00:13:54;;;;;;;41.40;22.67;;;;;;;6.47;76.88;101693.25;348993;28;1069;-68
2021/12/17 00:14:06;;;;;;;39.45;21.40;;;;;;;6.51;77.09;101692.44;351785;28;1112;-68
2021/12/17 00:14:26;;;;;;;37.20;21.05;;;;;;;6.52;76.95;101691.63;351765;28;1184;-74
2021/12/17 00:14:41;;;;;;;35.30;20.65;;;;;;;6.57;76.86;101691.69;349537;28;2182;-71
2021/12/17 00:14:53;;;;;;;35.60;20.80;;;;;;;6.54;77.29;101689.03;350304;28;1081;-69
2021/12/17 00:15:07;;;;;;;35.67;20.67;;;;;;;6.57;77.33;101689.09;350285;28;1902;-70
2021/12/17 00:15:19;;;;;;;34.67;20.67;;;;;;;6.60;77.02;101689.16;349422;28;780;-68
2021/12/17 00:15:31;;;;;;;33.10;20.30;;;;;;;6.62;77.02;101695.22;347513;28;1166;-68
2021/12/17 00:15:44;;;;;;;33.47;20.52;;;;;;;6.59;76.53;101687.41;347814;28;1218;-70
2021/12/17 00:15:57;;;;;;;33.67;20.38;;;;;;;6.54;77.16;101686.44;347624;28;1651;-70
2021/12/17 00:16:33;;;;;;;34.30;20.85;;;;;;;6.55;76.33;101691.66;349155;28;1022;-69
2021/12/17 00:16:44;;;;;;;36.33;21.23;;;;;;;6.56;76.70;101692.50;349217;28;1048;-68
2021/12/17 00:16:59;;;;;;;35.00;20.25;;;;;;;6.52;77.02;101695.88;349168;28;1699;-69
2021/12/17 00:17:13;;;;;;;35.83;20.83;;;;;;;6.56;77.11;101690.81;349200;28;1155;-69
2021/12/17 00:17:31;;;;;;;37.58;21.77;;;;;;;6.54;76.99;101691.63;348963;28;1070;-68
2021/12/17 00:17:53;;;;;;;33.20;20.20;;;;;;;6.55;76.65;101685.63;348730;28;1190;-69
2021/12/17 00:18:14;;;;;;;33.13;19.55;;;;;;;6.59;76.37;101683.09;346396;28;2383;-70
2021/12/17 00:18:40;;;;;;;34.10;20.40;;;;;;;6.65;77.01;101686.66;347435;28;1816;-69
2021/12/17 00:19:08;;;;;;;34.35;19.98;;;;;;;6.63;76.51;101680.59;347601;28;1648;-69
2021/12/17 00:20:47;;;;;;;35.97;19.75;;;;;;;6.50;77.01;101697.56;348780;28;1271;-68
2021/12/17 00:43:59;;;;;;;31.45;18.75;;;;;;;7.01;75.00;101670.81;348482;28;1182;-69
2021/12/17 00:44:10;;;;;;;38.25;21.58;;;;;;;6.98;75.89;101663.00;347627;28;1047;-68
2021/12/17 00:48:37;;;;;;;40.40;23.77;;;;;;;6.99;75.61;101657.00;348410;28;1034;-68
2021/12/17 00:48:49;;;;;;;42.25;24.45;;;;;;;6.96;75.92;101656.94;348240;28;1192;-68
2021/12/17 00:49:03;;;;;;;40.30;23.30;;;;;;;6.99;75.90;101657.00;347047;28;4626;-69
2021/12/17 00:49:16;;;;;;;37.33;22.40;;;;;;;7.00;75.58;101658.72;348193;28;1175;-69
2021/12/17 00:49:31;;;;;;;34.58;21.95;;;;;;;7.00;75.92;101656.16;348157;28;1435;-68
2021/12/17 00:50:37;;;;;;;38.25;21.35;;;;;;;6.96;75.74;101651.78;348148;28;1054;-70
2021/12/17 00:51:58;;;;;;;30.08;18.48;;;;;;;7.15;75.64;101652.94;347677;28;1117;-69
2021/12/17 00:52:10;;;;;;;26.90;17.40;;;;;;;7.22;76.00;101657.31;347116;28;875;-68
2021/12/17 00:52:23;;;;;;;29.45;18.90;;;;;;;7.23;75.40;101650.44;346892;28;1074;-68
2021/12/17 00:52:39;;;;;;;30.40;19.60;;;;;;;7.20;75.14;101657.31;346671;28;1143;-70
2021/12/17 00:52:51;;;;;;;31.48;20.15;;;;;;;7.20;75.00;101656.44;346881;28;1176;-71
2021/12/17 00:53:05;;;;;;;33.70;20.60;;;;;;;7.21;75.34;101658.19;347881;28;1869;-71
2021/12/17 00:53:21;;;;;;;36.55;20.40;;;;;;;7.21;75.05;101653.00;348133;28;1188;-69
2021/12/17 00:53:33;;;;;;;37.70;20.38;;;;;;;7.24;75.57;101657.34;347980;28;1033;-70
2021/12/17 00:53:45;;;;;;;33.22;19.50;;;;;;;7.25;75.21;101656.50;347921;28;1037;-69
2021/12/17 00:54:01;;;;;;;28.85;17.88;;;;;;;7.25;74.94;101653.91;348058;28;1682;-69
2021/12/17 00:54:20;;;;;;;25.35;16.67;;;;;;;7.26;75.02;101655.66;349338;28;1066;-73
2021/12/17 00:54:40;;;;;;;26.83;17.38;;;;;;;7.29;75.32;101656.56;349104;28;1147;-69
2021/12/17 00:54:52;;;;;;;28.17;18.40;;;;;;;7.25;74.78;101654.78;349340;28;1196;-68
2021/12/17 00:55:06;;;;;;;27.75;18.45;;;;;;;7.26;75.14;101655.66;347458;28;1334;-68
2021/12/17 00:55:18;;;;;;;27.85;17.98;;;;;;;7.24;74.65;101653.03;348084;28;1182;-68
2021/12/17 00:55:30;;;;;;;27.75;17.98;;;;;;;7.28;74.74;101659.13;347427;28;1101;-69
2021/12/17 00:55:42;;;;;;;28.05;17.77;;;;;;;7.27;74.61;101654.81;347803;28;1245;-68
2021/12/17 00:55:55;;;;;;;28.95;17.20;;;;;;;7.28;74.44;101656.53;348414;28;1480;-68
2021/12/17 00:56:07;;;;;;;29.67;17.08;;;;;;;7.27;74.85;101657.41;346965;28;1155;-68
2021/12/17 00:56:19;;;;;;;29.83;17.23;;;;;;;7.29;74.09;101660.88;347066;28;1015;-69
2021/12/17 00:56:31;;;;;;;30.15;17.95;;;;;;;7.28;74.92;101661.72;346785;28;1126;-70
2021/12/17 00:56:44;;;;;;;29.08;17.80;;;;;;;7.29;74.39;101658.28;346972;28;1042;-69
2021/12/17 00:56:57;;;;;;;26.10;16.75;;;;;;;7.30;74.90;101653.09;346686;28;1812;-72
2021/12/17 00:57:19;;;;;;;26.63;16.48;;;;;;;7.31;74.93;101656.59;346896;28;1163;-68
2021/12/17 00:57:39;;;;;;;30.90;17.60;;;;;;;7.32;74.32;101660.91;346605;28;1130;-70
2021/12/17 00:57:51;;;;;;;29.88;17.20;;;;;;;7.25;74.62;101654.78;346539;28;1039;-68
2021/12/17 00:58:03;;;;;;;28.23;17.00;;;;;;;7.24;74.85;101657.34;347172;28;1520;-71
2021/12/17 00:58:15;;;;;;;28.63;17.23;;;;;;;7.23;74.60;101650.44;346607;28;1035;-70
2021/12/17 00:58:27;;;;;;;29.25;17.45;;;;;;;7.19;74.42;101657.28;346912;28;1002;-70
2021/12/17 00:58:39;;;;;;;27.20;16.90;;;;;;;7.18;75.11;101653.84;344884;28;2368;-71
2021/12/17 00:58:52;;;;;;;27.58;16.60;;;;;;;7.17;74.77;101657.25;345281;28;2296;-70
2021/12/17 00:59:06;;;;;;;28.27;17.15;;;;;;;7.16;74.51;101655.53;346187;28;1909;-68
2021/12/17 00:59:19;;;;;;;27.05;17.40;;;;;;;7.16;74.66;101658.13;344093;28;1030;-69
2021/12/17 00:59:32;;;;;;;26.05;16.73;;;;;;;7.12;75.11;101658.94;346074;28;1715;-71
2021/12/17 00:59:48;;;;;;;27.25;16.92;;;;;;;7.16;74.96;101660.72;346726;28;1898;-70
2021/12/17 01:00:03;;;;;;;29.85;18.15;;;;;;;7.07;75.39;101655.41;346842;28;2099;-69
2021/12/17 01:00:21;;;;;;;32.30;19.00;;;;;;;7.08;75.40;101659.72;346997;28;1045;-69
2021/12/17 01:00:33;;;;;;;32.28;18.90;;;;;;;7.03;75.73;101658.78;348209;28;1074;-70
2021/12/17 01:00:46;;;;;;;32.35;19.02;;;;;;;7.01;75.49;101657.91;348943;28;1106;-73
2021/12/17 01:00:58;;;;;;;33.75;19.00;;;;;;;7.03;75.33;101652.75;348669;28;1415;-69
2021/12/17 01:01:10;;;;;;;33.28;19.02;;;;;;;7.03;75.65;101651.03;349503;28;1215;-70
2021/12/17 01:01:23;;;;;;;33.72;19.15;;;;;;;7.05;75.35;101654.50;349216;28;1156;-71
2021/12/17 01:01:35;;;;;;;32.35;18.60;;;;;;;7.06;75.68;101658.81;347146;28;1019;-70
2021/12/17 01:01:49;;;;;;;31.23;18.65;;;;;;;7.05;75.21;101659.69;346407;28;1157;-71
2021/12/17 01:02:07;;;;;;;30.10;18.20;;;;;;;7.03;75.95;101653.63;346420;28;1459;-70
2021/12/17 01:02:28;;;;;;;29.55;17.98;;;;;;;6.97;75.32;101656.13;344990;28;1885;-69
2021/12/17 01:02:41;;;;;;;26.35;16.85;;;;;;;7.02;75.62;101651.88;345372;28;1111;-69
2021/12/17 01:02:54;;;;;;;26.65;17.05;;;;;;;7.06;75.59;101658.81;345313;28;1482;-70
2021/12/17 01:03:06;;;;;;;28.55;17.83;;;;;;;7.09;75.58;101652.84;345341;28;1077;-71
2021/12/17 01:03:19;;;;;;;31.30;18.48;;;;;;;7.07;75.20;101659.72;345351;28;1074;-69
2021/12/17 01:03:31;;;;;;;31.83;18.20;;;;;;;7.08;75.25;101661.44;345299;28;1057;-73
2021/12/17 01:03:43;;;;;;;31.05;17.90;;;;;;;7.11;75.46;101662.34;346735;28;1066;-71
2021/12/17 01:03:56;;;;;;;29.80;17.33;;;;;;;7.14;75.14;101659.81;346704;28;1200;-70
2021/12/17 01:04:08;;;;;;;29.75;17.70;;;;;;;7.18;75.07;101659.00;348491;28;747;-69
2021/12/17 01:04:20;;;;;;;30.23;18.20;;;;;;;7.19;74.48;101663.31;347400;28;1126;-69
2021/12/17 01:04:35;;;;;;;32.38;18.98;;;;;;;7.21;74.90;101663.34;346836;28;1061;-70
2021/12/17 01:04:52;;;;;;;34.22;19.60;;;;;;;7.19;75.14;101663.31;347021;28;1170;-71
2021/12/17 01:05:09;;;;;;;34.45;19.83;;;;;;;7.18;74.83;101659.00;347787;28;1603;-70
2021/12/17 01:05:26;;;;;;;30.88;18.95;;;;;;;7.21;74.59;101660.75;347756;28;1030;-75
2021/12/17 01:05:40;;;;;;;26.70;16.42;;;;;;;7.21;75.14;101663.34;347753;28;996;-70
2021/12/17 01:05:52;;;;;;;26.88;15.75;;;;;;;7.23;75.12;101660.78;348160;28;1081;-69
2021/12/17 01:06:05;;;;;;;26.80;15.90;;;;;;;7.25;74.77;101661.69;346854;28;2034;-69
2021/12/17 01:06:18;;;;;;;28.98;16.67;;;;;;;7.25;74.78;101664.25;346636;28;1242;-71
2021/12/17 01:06:30;;;;;;;28.80;16.90;;;;;;;7.26;74.49;101664.25;344988;28;1801;-69
2021/12/17 01:06:43;;;;;;;28.65;17.23;;;;;;;7.27;74.35;101663.44;346703;28;1171;-69
2021/12/17 01:06:55;;;;;;;29.73;18.10;;;;;;;7.27;74.39;101662.56;346159;28;2341;-69
2021/12/17 01:07:08;;;;;;;32.78;19.00;;;;;;;7.27;74.77;101662.56;346276;28;1653;-73
2021/12/17 01:07:23;;;;;;;33.97;19.00;;;;;;;7.20;75.31;101662.50;346720;28;1038;-69
2021/12/17 01:07:38;;;;;;;32.30;18.08;;;;;;;7.21;74.56;101663.34;347779;28;1700;-70
2021/12/17 01:07:53;;;;;;;27.48;16.55;;;;;;;7.22;75.02;101664.22;347636;28;925;-70
2021/12/17 01:08:06;;;;;;;28.48;17.00;;;;;;;7.22;75.07;101664.22;346113;28;2145;-71
2021/12/17 01:08:18;;;;;;;29.75;17.33;;;;;;;7.23;74.61;101659.06;346410;28;1028;-70
2021/12/17 01:08:31;;;;;;;25.90;15.95;;;;;;;7.26;75.28;101663.41;346821;28;1082;-70
2021/12/17 01:08:43;;;;;;;25.42;15.35;;;;;;;7.26;75.09;101660.81;347932;28;1256;-69
2021/12/17 01:08:55;;;;;;;25.50;15.55;;;;;;;7.28;75.10;101661.72;348053;28;2126;-70
2021/12/17 01:09:10;;;;;;;25.40;15.52;;;;;;;7.29;75.31;101660.88;346596;28;921;-70
2021/12/17 01:09:25;;;;;;;26.25;16.17;;;;;;;7.28;74.73;101653.94;345973;28;1033;-71
2021/12/17 01:09:37;;;;;;;29.15;17.98;;;;;;;7.16;75.84;101673.66;346418;28;2116;-69
2021/12/17 01:09:51;;;;;;;30.75;18.67;;;;;;;7.10;75.28;101663.22;345672;28;1762;-73
2021/12/17 01:10:07;;;;;;;33.78;18.88;;;;;;;6.99;75.85;101660.47;345146;28;1331;-69
2021/12/17 01:10:32;;;;;;;34.85;19.23;;;;;;;6.92;76.19;101656.06;344151;28;1274;-69
2021/12/17 01:10:51;;;;;;;33.95;19.15;;;;;;;6.89;76.12;101661.16;342913;28;1026;-70
2021/12/17 01:11:05;;;;;;;33.00;19.25;;;;;;;6.91;76.22;101659.47;343694;28;1578;-73
2021/12/17 01:11:18;;;;;;;36.47;19.52;;;;;;;6.93;75.45;101659.50;344240;28;1015;-70
2021/12/17 01:11:30;;;;;;;36.80;19.83;;;;;;;6.90;76.24;101656.88;344158;28;1009;-72
2021/12/17 01:11:43;;;;;;;37.45;20.85;;;;;;;6.89;75.93;101661.16;344418;28;1163;-71
2021/12/17 01:11:57;;;;;;;36.40;20.60;;;;;;;6.89;75.78;101660.31;345403;28;1487;-69
2021/12/17 01:12:09;;;;;;;37.10;20.75;;;;;;;6.89;75.39;101662.91;346710;28;1109;-70
2021/12/17 01:12:23;;;;;;;35.63;20.10;;;;;;;6.87;75.93;101662.00;347715;28;743;-69
2021/12/17 01:12:35;;;;;;;32.13;19.58;;;;;;;6.89;75.96;101662.91;347924;28;1212;-69
2021/12/17 01:12:47;;;;;;;29.20;18.48;;;;;;;6.92;75.75;101665.50;347918;28;1183;-69
2021/12/17 01:13:01;;;;;;;30.20;18.33;;;;;;;6.94;75.74;101658.66;347860;28;1270;-71
2021/12/17 01:13:13;;;;;;;33.05;18.83;;;;;;;6.90;75.92;101664.63;347757;28;1011;-69
2021/12/17 01:13:27;;;;;;;35.03;19.23;;;;;;;6.86;75.88;101652.50;346811;28;1208;-72
2021/12/17 01:13:41;;;;;;;36.17;19.85;;;;;;;6.81;76.08;101662.78;346598;28;1026;-69
2021/12/17 01:13:53;;;;;;;35.88;20.23;;;;;;;6.82;75.03;101666.22;346609;28;1014;-72
2021/12/17 01:14:06;;;;;;;34.72;19.83;;;;;;;6.84;75.20;101656.78;346745;28;1548;-72
2021/12/17 01:14:18;;;;;;;35.10;19.73;;;;;;;6.80;75.05;101656.75;345597;28;740;-75
2021/12/17 01:14:32;;;;;;;33.97;20.23;;;;;;;6.78;73.96;101663.59;345462;28;1211;-69
2021/12/17 01:14:45;;;;;;;35.80;20.10;;;;;;;6.74;74.62;101661.81;345409;28;1093;-70
2021/12/17 01:14:57;;;;;;;36.15;19.67;;;;;;;6.70;74.39;101660.03;345279;28;1533;-70
2021/12/17 01:15:11;;;;;;;35.10;19.60;;;;;;;6.68;74.28;101666.91;342501;28;1645;-69
2021/12/17 01:15:24;;;;;;;34.08;19.83;;;;;;;6.67;74.25;101665.16;342860;28;877;-69
2021/12/17 01:15:38;;;;;;;32.92;19.77;;;;;;;6.63;73.82;101663.34;343900;28;1260;-70
2021/12/17 01:15:50;;;;;;;34.33;20.40;;;;;;;6.61;73.97;101665.03;342690;28;973;-71
2021/12/17 01:16:06;;;;;;;35.58;20.13;;;;;;;6.59;74.42;101661.56;342515;28;1149;-71
2021/12/17 01:16:19;;;;;;;35.95;19.83;;;;;;;6.59;74.80;101661.56;344100;28;1077;-69
2021/12/17 01:16:32;;;;;;;35.15;19.48;;;;;;;6.60;74.28;101668.50;343625;28;1024;-69
2021/12/17 01:16:44;;;;;;;32.63;18.88;;;;;;;6.59;74.71;101670.19;343875;28;1292;-72
2021/12/17 01:16:57;;;;;;;31.58;18.60;;;;;;;6.57;74.30;101664.13;344412;28;1068;-71
2021/12/17 01:17:10;;;;;;;32.20;19.27;;;;;;;6.61;74.62;101665.03;344342;28;1067;-69
2021/12/17 01:17:25;;;;;;;30.95;19.10;;;;;;;6.66;75.17;101673.75;344251;28;1052;-70
2021/12/17 01:17:41;;;;;;;31.42;18.85;;;;;;;6.68;75.17;101668.59;344542;28;1090;-69
2021/12/17 01:18:00;;;;;;;34.08;19.60;;;;;;;6.66;75.22;101671.16;345248;28;1032;-69
2021/12/17 01:18:17;;;;;;;31.85;19.05;;;;;;;6.68;75.65;101663.41;345478;28;1174;-70
2021/12/17 01:18:44;;;;;;;30.35;19.27;;;;;;;6.69;75.46;101665.19;349008;28;1094;-70
2021/12/17 01:19:14;;;;;;;32.03;18.55;;;;;;;6.73;75.74;101669.53;348502;28;1976;-70
2021/12/17 01:21:31;;;;;;;35.10;20.13;;;;;;;6.66;76.94;101667.69;348240;28;1239;-70
2021/12/17 01:24:59;;;;;;;35.72;20.17;;;;;;;6.49;77.27;101675.19;345126;28;1089;-71
2021/12/17 01:25:22;;;;;;;34.25;19.83;;;;;;;6.47;77.33;101661.38;343791;28;1056;-69
2021/12/17 01:35:30;;;;;;;34.58;20.10;;;;;;;6.09;79.17;101675.34;348005;28;999;-71
2021/12/17 01:35:43;;;;;;;36.33;20.73;;;;;;;6.13;77.92;101677.16;348241;28;1073;-70
2021/12/17 01:35:56;;;;;;;35.53;21.10;;;;;;;6.10;77.25;101671.06;348005;28;1062;-69
2021/12/17 01:36:08;;;;;;;36.45;20.90;;;;;;;6.10;77.21;101671.94;348287;28;831;-71
2021/12/17 01:36:20;;;;;;;36.08;20.38;;;;;;;6.14;77.17;101667.72;347905;28;1098;-71
2021/12/17 01:36:32;;;;;;;36.55;20.05;;;;;;;6.18;77.06;101669.50;348003;28;1220;-72
2021/12/17 01:36:44;;;;;;;34.88;20.02;;;;;;;6.12;77.18;101666.81;347486;28;2061;-74
2021/12/17 01:37:33;;;;;;;36.15;20.73;;;;;;;6.05;77.16;101662.38;347079;28;1937;-71
2021/12/17 01:38:09;;;;;;;;;;;;;;;;;;;;;
2021/12/17 01:41:46;;;;;;;34.78;20.35;;;;;;;6.09;78.33;101671.91;346874;28;1178;-70
2021/12/17 01:42:09;;;;;;;36.83;20.77;;;;;;;6.22;77.16;101665.22;348056;28;1898;-69
2021/12/17 01:42:21;;;;;;;36.85;20.67;;;;;;;6.16;76.54;101666.88;348158;28;1502;-69
2021/12/17 01:42:34;;;;;;;35.28;20.30;;;;;;;6.16;77.15;101671.19;348377;28;1207;-69
2021/12/17 01:42:46;;;;;;;34.17;20.08;;;;;;;6.18;76.51;101664.34;348126;28;1141;-72
2021/12/17 01:42:58;;;;;;;33.38;19.35;;;;;;;6.23;76.68;101667.84;347842;28;1635;-71
2021/12/17 01:43:12;;;;;;;34.17;19.08;;;;;;;6.21;76.46;101664.38;348287;28;1004;-70
2021/12/17 01:43:27;;;;;;;32.90;19.13;;;;;;;6.26;76.44;101667.91;347908;28;1011;-70
2021/12/17 01:43:47;;;;;;;33.67;19.77;;;;;;;6.17;76.53;101667.75;348162;28;1181;-69
2021/12/17 01:43:59;;;;;;;33.17;19.58;;;;;;;6.17;76.32;101666.03;348044;28;1042;-71
2021/12/17 01:44:12;;;;;;;31.80;19.23;;;;;;;6.22;76.87;101663.53;347083;28;2255;-69
2021/12/17 01:44:24;;;;;;;30.63;18.58;;;;;;;6.24;76.34;101659.28;346338;28;1780;-69
2021/12/17 01:44:40;;;;;;;29.83;18.23;;;;;;;6.24;76.21;101659.28;346997;28;852;-72
2021/12/17 01:44:52;;;;;;;32.20;18.50;;;;;;;6.24;75.44;101661.84;346531;28;1038;-71
2021/12/17 01:45:05;;;;;;;33.28;18.52;;;;;;;6.23;75.45;101667.84;348896;28;1369;-71
2021/12/17 01:45:18;;;;;;;32.17;18.08;;;;;;;6.22;74.76;101660.97;349552;28;1124;-70
2021/12/17 01:45:35;;;;;;;31.85;18.27;;;;;;;6.24;75.89;101659.28;347956;28;1206;-69
2021/12/17 01:45:47;;;;;;;32.38;19.05;;;;;;;6.20;75.83;101662.66;349432;28;1029;-70
2021/12/17 01:46:01;;;;;;;33.55;19.50;;;;;;;6.19;76.47;101661.75;348965;28;1057;-69
2021/12/17 01:46:20;;;;;;;35.80;19.88;;;;;;;6.20;75.81;101662.66;347903;28;1089;-70
2021/12/17 01:46:34;;;;;;;33.75;18.98;;;;;;;6.21;76.13;101661.78;348020;28;1170;-69
2021/12/17 01:46:50;;;;;;;32.80;19.23;;;;;;;6.21;76.00;101669.53;347747;28;914;-70
2021/12/17 01:47:05;;;;;;;34.42;19.58;;;;;;;6.09;77.69;101664.16;348634;28;1240;-70
2021/12/17 01:47:17;;;;;;;37.67;20.17;;;;;;;6.07;77.95;101671.88;347744;28;910;-71
2021/12/17 01:47:29;;;;;;;38.33;20.27;;;;;;;6.10;77.95;101665.91;348350;28;1035;-69
2021/12/17 01:47:41;;;;;;;37.60;20.02;;;;;;;6.09;78.26;101664.16;349288;28;1246;-70
2021/12/17 01:47:53;;;;;;;38.30;19.98;;;;;;;6.07;78.74;101665.84;346980;28;2215;-70
2021/12/17 01:48:33;;;;;;;32.58;19.30;;;;;;;6.13;79.12;101660.78;347923;28;2028;-69
2021/12/17 01:56:03;;;;;;;33.10;19.05;;;;;;;6.26;78.07;101657.59;346623;28;1010;-69
2021/12/17 01:56:36;;;;;;;32.80;18.55;;;;;;;6.27;78.16;101653.28;346900;28;1081;-69
2021/12/17 01:59:20;;;;;;;35.08;20.35;;;;;;;6.20;77.96;101652.31;346911;28;1121;-71
2021/12/17 01:59:52;;;;;;;36.88;20.00;;;;;;;6.13;78.77;101653.03;346615;28;1096;-71
2021/12/17 02:00:07;;;;;;;36.20;19.95;;;;;;;6.17;78.94;101652.25;347369;28;1294;-69
2021/12/17 02:00:32;;;;;;;35.63;20.10;;;;;;;6.22;78.45;101654.91;347968;28;1380;-70
2021/12/17 02:00:46;;;;;;;31.88;18.00;;;;;;;6.29;78.91;101652.47;348382;28;1082;-70
2021/12/17 02:00:58;;;;;;;31.38;17.90;;;;;;;6.34;78.65;101656.00;348454;28;1624;-72
2021/12/17 02:01:11;;;;;;;29.40;17.83;;;;;;;6.38;78.38;101646.59;348220;28;1181;-70
2021/12/17 02:01:23;;;;;;;29.02;17.60;;;;;;;6.42;78.40;101650.06;348113;28;1219;-71
2021/12/17 02:01:35;;;;;;;26.80;17.13;;;;;;;6.45;78.41;101652.72;348228;28;1206;-70
2021/12/17 02:01:48;;;;;;;27.60;18.08;;;;;;;6.46;78.06;101649.28;348104;28;1209;-71
2021/12/17 02:02:05;;;;;;;30.25;18.88;;;;;;;6.46;78.63;101654.44;347974;28;1573;-71
2021/12/17 02:02:18;;;;;;;32.95;18.85;;;;;;;6.44;78.81;101656.13;348031;28;1216;-71
2021/12/17 02:02:37;;;;;;;34.17;18.90;;;;;;;6.37;79.04;101656.03;347957;28;1025;-71
2021/12/17 02:02:57;;;;;;;32.58;18.63;;;;;;;6.40;78.92;101656.09;347543;28;2182;-69
2021/12/17 02:03:11;;;;;;;34.63;19.63;;;;;;;6.43;78.64;101646.66;346716;28;2134;-71
2021/12/17 02:03:24;;;;;;;33.67;19.08;;;;;;;6.44;78.70;101651.88;346758;28;1054;-70
2021/12/17 02:03:37;;;;;;;33.00;19.17;;;;;;;6.43;78.91;101664.75;346392;28;1003;-69
2021/12/17 02:03:49;;;;;;;33.10;19.17;;;;;;;6.45;78.61;101652.72;347097;28;820;-69
2021/12/17 02:04:05;;;;;;;31.95;18.92;;;;;;;6.46;78.34;101651.88;348052;28;1743;-70
2021/12/17 02:04:17;;;;;;;31.15;19.02;;;;;;;6.50;78.92;101651.06;346608;28;1082;-69
2021/12/17 02:04:31;;;;;;;32.63;19.45;;;;;;;6.44;78.72;101651.88;346246;28;1055;-69
2021/12/17 02:04:44;;;;;;;34.60;19.70;;;;;;;6.43;79.24;101664.75;346851;28;1235;-72
2021/12/17 02:04:56;;;;;;;36.45;19.77;;;;;;;6.34;79.22;101663.75;345400;28;1624;-72
2021/12/17 02:05:10;;;;;;;36.00;19.65;;;;;;;6.34;79.43;101656.00;342925;28;1540;-69
2021/12/17 02:05:22;;;;;;;35.05;19.83;;;;;;;6.31;79.50;101663.69;343721;28;1055;-75
2021/12/17 02:05:35;;;;;;;36.85;20.52;;;;;;;6.30;79.26;101669.72;343391;28;1579;-70
2021/12/17 02:05:47;;;;;;;36.42;20.52;;;;;;;6.24;80.14;101663.53;343180;28;756;-70
2021/12/17 02:06:00;;;;;;;33.80;19.88;;;;;;;6.22;79.61;101665.22;342276;28;1518;-70
2021/12/17 02:06:12;;;;;;;32.45;19.27;;;;;;;6.23;79.80;101665.28;343771;28;1592;-73
2021/12/17 02:06:27;;;;;;;31.98;19.17;;;;;;;6.32;79.28;101662.84;344622;28;1624;-70
2021/12/17 02:06:40;;;;;;;31.70;19.05;;;;;;;6.34;79.01;101663.75;345152;28;1118;-72
2021/12/17 02:06:52;;;;;;;34.28;19.60;;;;;;;6.27;79.26;101664.47;344225;28;1191;-71
2021/12/17 02:07:05;;;;;;;36.83;19.17;;;;;;;6.26;79.09;101662.75;345508;28;1451;-70
2021/12/17 02:07:17;;;;;;;36.53;19.08;;;;;;;6.30;79.11;101667.13;346732;28;1070;-69
2021/12/17 02:07:29;;;;;;;35.85;19.55;;;;;;;6.27;79.28;101659.31;347699;28;1112;-69
2021/12/17 02:07:43;;;;;;;35.75;20.08;;;;;;;6.25;79.70;101667.88;347763;28;1075;-70
2021/12/17 02:07:57;;;;;;;34.50;19.50;;;;;;;6.18;79.37;101664.34;349778;28;781;-69
2021/12/17 02:08:10;;;;;;;32.08;18.67;;;;;;;6.10;79.59;101660.75;349174;28;1038;-70
2021/12/17 02:08:22;;;;;;;33.63;19.75;;;;;;;6.14;79.90;101667.72;349854;28;742;-70
2021/12/17 02:08:35;;;;;;;34.38;20.35;;;;;;;6.16;79.07;101666.03;349326;28;1269;-71
2021/12/17 02:08:49;;;;;;;34.20;20.32;;;;;;;6.14;79.11;101662.53;349147;28;1226;-69
2021/12/17 02:09:13;;;;;;;35.13;20.17;;;;;;;6.13;78.66;101665.94;350690;28;1620;-72
2021/12/17 02:20:12;;;;;;;30.02;17.95;;;;;;;6.42;78.15;101658.72;348050;28;1049;-70
2021/12/17 02:23:01;;;;;;;32.78;18.60;;;;;;;6.27;78.63;101653.28;346520;28;1192;-69
2021/12/17 02:28:44;;;;;;;31.77;18.48;;;;;;;6.14;77.85;101654.78;346695;28;1080;-70
2021/12/17 02:30:19;;;;;;;31.10;17.88;;;;;;;6.07;80.58;101655.53;346268;28;1522;-69
2021/12/17 02:31:35;;;;;;;31.40;18.27;;;;;;;6.25;79.24;101642.06;346371;28;1028;-72
2021/12/17 02:31:48;;;;;;;31.63;18.27;;;;;;;6.28;79.16;101639.50;346545;28;1084;-70
2021/12/17 02:32:02;;;;;;;29.63;17.90;;;;;;;6.32;79.03;101641.34;345580;28;1947;-69
2021/12/17 02:32:17;;;;;;;28.42;17.67;;;;;;;6.33;78.91;101649.09;345197;28;1124;-71
2021/12/17 02:32:32;;;;;;;28.98;18.02;;;;;;;6.28;79.17;101643.00;345176;28;1045;-70
2021/12/17 02:32:46;;;;;;;28.20;17.45;;;;;;;6.33;78.68;101638.75;344261;28;1048;-69
2021/12/17 02:32:58;;;;;;;27.02;16.90;;;;;;;6.39;79.19;101641.44;343748;28;1962;-69